createdAt,value
2018-06-30T04:53:18.806Z,25.7
2018-06-30T04:54:08.924Z,25.7
2018-06-30T04:54:58.381Z,25.7
2018-06-30T04:55:49.440Z,25.7
2018-06-30T04:56:38.184Z,25.7
2018-06-30T04:57:29.428Z,25.7
2018-06-30T04:58:18.849Z,25.8
2018-06-30T04:59:08.687Z,25.7
2018-06-30T04:59:59.526Z,25.8
2018-06-30T05:00:49.096Z,25.8
2018-06-30T05:01:39.417Z,25.7
2018-06-30T05:02:28.977Z,25.8
2018-06-30T05:03:19.829Z,25.8
2018-06-30T05:04:09.823Z,25.8
2018-06-30T05:04:58.466Z,25.8
2018-06-30T05:05:49.693Z,25.8
2018-06-30T05:06:39.173Z,25.8
2018-06-30T05:07:30.076Z,25.8
2018-06-30T05:08:19.303Z,25.8
2018-06-30T05:09:09.731Z,25.8
2018-06-30T05:09:59.743Z,25.8
2018-06-30T05:10:48.919Z,25.8
2018-06-30T05:11:39.910Z,25.8
2018-06-30T05:12:29.506Z,25.8
2018-06-30T05:13:20.468Z,25.8
2018-06-30T05:14:10.564Z,25.8
2018-06-30T05:15:00.098Z,25.8
2018-06-30T05:15:50.968Z,25.8
2018-06-30T05:16:40.825Z,25.8
2018-06-30T05:17:29.968Z,25.8
2018-06-30T05:18:20.337Z,25.8
2018-06-30T05:19:11.228Z,25.8
2018-06-30T05:20:01.014Z,25.8
2018-06-30T05:20:51.060Z,25.8
2018-06-30T05:21:41.413Z,25.8
2018-06-30T05:22:31.447Z,25.8
2018-06-30T05:23:21.012Z,25.8
2018-06-30T05:24:11.045Z,25.8
2018-06-30T05:25:01.403Z,25.8
2018-06-30T05:25:51.845Z,25.8
2018-06-30T05:26:40.983Z,25.8
2018-06-30T05:27:31.577Z,25.8
2018-06-30T05:28:21.645Z,25.8
2018-06-30T05:29:11.959Z,25.8
2018-06-30T05:30:02.042Z,25.8
2018-06-30T05:30:52.099Z,25.8
2018-06-30T05:31:41.877Z,25.8
2018-06-30T05:32:31.669Z,25.8
2018-06-30T05:33:22.934Z,25.8
2018-06-30T05:34:11.583Z,25.8
2018-06-30T05:35:01.846Z,25.7
2018-06-30T05:35:52.255Z,25.8
2018-06-30T05:36:42.572Z,25.8
2018-06-30T05:37:32.049Z,25.8
2018-06-30T05:38:21.817Z,25.8
2018-06-30T05:39:12.458Z,25.8
2018-06-30T05:40:02.782Z,25.8
2018-06-30T05:40:51.285Z,25.8
2018-06-30T05:41:41.930Z,25.8
2018-06-30T05:42:32.691Z,25.8
2018-06-30T05:43:22.756Z,25.8
2018-06-30T05:44:12.636Z,25.8
2018-06-30T05:45:02.437Z,25.8
2018-06-30T05:45:52.459Z,25.8
2018-06-30T05:46:43.082Z,25.8
2018-06-30T05:47:33.323Z,25.8
2018-06-30T05:48:22.575Z,25.8
2018-06-30T05:49:13.473Z,25.8
2018-06-30T05:50:03.041Z,25.8
2018-06-30T05:50:53.359Z,25.8
2018-06-30T05:51:43.165Z,25.8
2018-06-30T05:52:33.177Z,25.8
2018-06-30T05:53:24.061Z,25.8
2018-06-30T05:54:13.012Z,25.7
2018-06-30T05:55:03.896Z,25.8
2018-06-30T05:55:53.435Z,25.8
2018-06-30T05:56:43.511Z,25.8
2018-06-30T05:57:34.143Z,25.8
2018-06-30T05:59:41.900Z,25.7
2018-06-30T05:59:53.590Z,25.7
2018-06-30T06:00:43.438Z,25.8
2018-06-30T06:01:33.260Z,25.8
2018-06-30T06:02:23.643Z,25.8
2018-06-30T06:03:13.922Z,25.7
2018-06-30T06:04:04.225Z,25.7
2018-06-30T06:04:53.427Z,25.8
2018-06-30T06:05:44.349Z,25.7
2018-06-30T06:06:34.120Z,25.8
2018-06-30T06:07:24.479Z,25.8
2018-06-30T06:08:13.964Z,25.7
2018-06-30T06:09:04.327Z,25.7
2018-06-30T06:09:55.962Z,25.7
2018-06-30T06:10:44.314Z,25.8
2018-06-30T06:11:34.787Z,25.7
2018-06-30T06:12:23.807Z,25.8
2018-06-30T06:13:14.484Z,25.8
2018-06-30T06:14:04.470Z,25.7
2018-06-30T06:14:53.729Z,25.8
2018-06-30T06:15:43.822Z,25.8
2018-06-30T06:16:34.650Z,25.7
2018-06-30T06:17:24.412Z,25.8
2018-06-30T06:18:15.590Z,25.7
2018-06-30T06:19:05.409Z,25.7
2018-06-30T06:19:55.189Z,25.7
2018-06-30T06:20:45.534Z,25.7
2018-06-30T06:21:35.554Z,25.7
2018-06-30T06:22:25.904Z,25.7
2018-06-30T06:23:15.119Z,25.7
2018-06-30T06:24:05.696Z,25.7
2018-06-30T06:24:55.538Z,25.7
2018-06-30T06:25:45.373Z,25.7
2018-06-30T06:26:36.194Z,25.7
2018-06-30T06:27:26.673Z,25.7
2018-06-30T06:28:16.349Z,25.7
2018-06-30T06:29:05.863Z,25.7
2018-06-30T06:29:55.614Z,25.7
2018-06-30T06:30:46.503Z,25.8
2018-06-30T06:31:36.063Z,25.7
2018-06-30T06:32:25.864Z,25.7
2018-06-30T06:33:15.630Z,25.7
2018-06-30T06:34:05.700Z,25.7
2018-06-30T06:34:55.470Z,25.7
2018-06-30T06:35:45.860Z,25.7
2018-06-30T06:36:35.999Z,25.7
2018-06-30T06:37:26.535Z,25.7
2018-06-30T06:38:16.065Z,25.7
2018-06-30T06:39:06.082Z,25.7
2018-06-30T06:39:56.443Z,25.7
2018-06-30T06:40:46.758Z,25.7
2018-06-30T06:41:36.604Z,25.8
2018-06-30T06:42:26.833Z,25.8
2018-06-30T06:43:16.650Z,25.7
2018-06-30T06:44:07.263Z,25.7
2018-06-30T06:44:57.601Z,25.8
2018-06-30T06:45:46.815Z,25.8
2018-06-30T06:46:37.530Z,25.8
2018-06-30T06:47:27.483Z,25.7
2018-06-30T06:48:17.542Z,25.7
2018-06-30T06:49:07.934Z,25.8
2018-06-30T06:49:56.082Z,25.8
2018-06-30T06:50:46.494Z,25.7
2018-06-30T06:51:36.739Z,25.8
2018-06-30T06:52:26.970Z,25.8
2018-06-30T06:53:16.860Z,25.8
2018-06-30T06:54:07.497Z,25.8
2018-06-30T06:54:57.049Z,25.8
2018-06-30T06:55:47.449Z,25.8
2018-06-30T06:56:37.362Z,25.8
2018-06-30T06:57:28.513Z,25.8
2018-06-30T06:58:18.037Z,25.8
2018-06-30T06:59:07.539Z,25.8
2018-06-30T06:59:58.136Z,25.7
2018-06-30T07:00:47.967Z,25.8
2018-06-30T07:01:37.599Z,25.8
2018-06-30T07:02:28.102Z,25.8
2018-06-30T07:03:18.456Z,25.8
2018-06-30T07:04:08.232Z,25.8
2018-06-30T07:04:57.984Z,25.8
2018-06-30T07:05:48.664Z,25.8
2018-06-30T07:06:38.406Z,25.7
2018-06-30T07:07:28.714Z,25.8
2018-06-30T07:08:19.090Z,25.8
2018-06-30T07:09:08.357Z,25.8
2018-06-30T07:09:59.578Z,25.8
2018-06-30T07:10:48.718Z,25.7
2018-06-30T07:11:38.773Z,25.8
2018-06-30T07:12:29.662Z,25.8
2018-06-30T07:13:19.638Z,25.8
2018-06-30T07:14:09.743Z,25.7
2018-06-30T07:14:59.326Z,25.7
2018-06-30T07:15:49.338Z,25.8
2018-06-30T07:16:39.431Z,25.7
2018-06-30T07:17:29.163Z,25.7
2018-06-30T07:18:19.548Z,25.7
2018-06-30T07:19:09.391Z,25.7
2018-06-30T07:19:59.646Z,25.8
2018-06-30T07:20:49.702Z,25.8
2018-06-30T07:21:40.204Z,25.8
2018-06-30T07:22:29.600Z,25.8
2018-06-30T07:23:20.191Z,25.8
2018-06-30T07:24:09.430Z,25.8
2018-06-30T07:24:59.785Z,25.7
2018-06-30T07:25:49.255Z,25.8
2018-06-30T07:26:40.435Z,25.8
2018-06-30T07:27:29.989Z,25.8
2018-06-30T07:28:20.183Z,25.8
2018-06-30T07:29:09.563Z,25.8
2018-06-30T07:30:00.109Z,25.8
2018-06-30T07:30:51.601Z,25.8
2018-06-30T07:31:40.267Z,25.8
2018-06-30T07:32:30.087Z,25.7
2018-06-30T07:33:21.320Z,25.7
2018-06-30T07:34:10.727Z,25.7
2018-06-30T07:35:00.855Z,25.7
2018-06-30T07:35:50.860Z,25.7
2018-06-30T07:36:40.920Z,25.7
2018-06-30T07:37:31.798Z,25.7
2018-06-30T07:38:21.053Z,25.7
2018-06-30T07:39:11.292Z,25.7
2018-06-30T07:40:01.705Z,25.6
2018-06-30T07:40:51.799Z,25.6
2018-06-30T07:41:41.022Z,25.6
2018-06-30T07:42:31.995Z,25.6
2018-06-30T07:43:21.519Z,25.6
2018-06-30T07:44:12.199Z,25.6
2018-06-30T07:45:01.536Z,25.6
2018-06-30T07:45:51.907Z,25.6
2018-06-30T07:46:42.169Z,25.6
2018-06-30T07:47:32.084Z,25.6
2018-06-30T07:48:22.092Z,25.6
2018-06-30T07:49:11.659Z,25.6
2018-06-30T07:50:02.446Z,25.6
2018-06-30T07:50:52.259Z,25.6
2018-06-30T07:51:42.349Z,25.6
2018-06-30T07:52:31.391Z,25.6
2018-06-30T07:53:22.043Z,25.6
2018-06-30T07:54:12.232Z,25.6
2018-06-30T07:55:02.279Z,25.6
2018-06-30T07:55:52.297Z,25.6
2018-06-30T07:56:42.584Z,25.6
2018-06-30T07:57:32.471Z,25.6
2018-06-30T07:58:22.561Z,25.6
2018-06-30T07:59:12.649Z,25.5
2018-06-30T08:00:02.699Z,25.5
2018-06-30T08:00:52.748Z,25.6
2018-06-30T08:01:42.843Z,25.5
2018-06-30T08:02:32.883Z,25.6
2018-06-30T08:03:22.338Z,25.5
2018-06-30T08:04:12.985Z,25.5
2018-06-30T08:05:03.324Z,25.5
2018-06-30T08:05:53.151Z,25.5
2018-06-30T08:06:43.261Z,25.5
2018-06-30T08:07:32.990Z,25.5
2018-06-30T08:08:23.365Z,25.5
2018-06-30T08:09:13.693Z,25.5
2018-06-30T08:10:03.470Z,29.4
2018-06-30T08:10:53.210Z,32.4
2018-06-30T08:11:43.850Z,34.5
2018-06-30T08:12:33.337Z,36.6
2018-06-30T08:13:23.116Z,37.3
2018-06-30T08:14:13.573Z,36.7
2018-06-30T08:15:03.587Z,35.9
2018-06-30T08:15:53.875Z,35.4
2018-06-30T08:16:43.943Z,35.1
2018-06-30T08:17:34.360Z,35
2018-06-30T08:18:24.092Z,34.8
2018-06-30T08:19:13.829Z,34.6
2018-06-30T08:20:04.047Z,34.4
2018-06-30T08:20:54.002Z,34.3
2018-06-30T08:21:43.734Z,34.1
2018-06-30T08:22:34.411Z,33.9
2018-06-30T08:23:24.452Z,34
2018-06-30T08:24:14.774Z,36.4
2018-06-30T08:25:05.134Z,37.5
2018-06-30T08:25:54.643Z,39.8
2018-06-30T08:26:44.999Z,40.8
2018-06-30T08:27:34.734Z,41.1
2018-06-30T08:28:24.551Z,41.1
2018-06-30T08:29:14.940Z,41
2018-06-30T08:30:04.114Z,41.2
2018-06-30T08:30:54.756Z,41.6
2018-06-30T08:31:45.341Z,42.1
2018-06-30T08:32:35.398Z,42.3
2018-06-30T08:33:25.468Z,42.6
2018-06-30T08:34:15.598Z,42.8
2018-06-30T08:35:05.618Z,43
2018-06-30T08:35:55.108Z,43.2
2018-06-30T08:36:45.463Z,43.3
2018-06-30T08:37:35.550Z,43.5
2018-06-30T08:38:25.378Z,43.6
2018-06-30T08:39:15.641Z,43.7
2018-06-30T08:40:05.715Z,43.6
2018-06-30T08:40:55.750Z,43.5
2018-06-30T08:41:45.886Z,43.4
2018-06-30T08:42:36.445Z,43.4
2018-06-30T08:43:26.248Z,43.4
2018-06-30T08:44:16.354Z,43.3
2018-06-30T08:45:05.885Z,43.3
2018-06-30T08:45:56.440Z,43.3
2018-06-30T08:46:46.240Z,43.3
2018-06-30T08:47:36.067Z,43.3
2018-06-30T08:48:26.140Z,43.3
2018-06-30T08:49:16.420Z,43.4
2018-06-30T08:50:06.227Z,43.4
2018-06-30T08:50:56.590Z,43.4
2018-06-30T08:51:46.730Z,43.5
2018-06-30T08:52:36.832Z,43.6
2018-06-30T08:53:27.324Z,43.6
2018-06-30T08:54:16.914Z,43.8
2018-06-30T08:55:06.947Z,43.9
2018-06-30T08:55:56.952Z,43.9
2018-06-30T08:56:46.742Z,43.9
2018-06-30T08:57:37.077Z,43.9
2018-06-30T08:58:27.647Z,43.9
2018-06-30T08:59:17.744Z,43.8
2018-06-30T09:00:06.962Z,43.8
2018-06-30T09:00:57.347Z,43.7
2018-06-30T09:01:47.692Z,43.6
2018-06-30T09:02:36.869Z,43.4
2018-06-30T09:03:27.246Z,43.4
2018-06-30T09:04:17.905Z,43.3
2018-06-30T09:05:07.349Z,43.3
2018-06-30T09:05:58.269Z,43.3
2018-06-30T09:06:48.942Z,43.2
2018-06-30T09:07:37.891Z,43.2
2018-06-30T09:08:28.226Z,43.1
2018-06-30T09:09:18.226Z,43.1
2018-06-30T09:10:08.051Z,43.1
2018-06-30T09:10:58.095Z,43
2018-06-30T09:11:47.319Z,42.9
2018-06-30T09:12:38.506Z,42.9
2018-06-30T09:13:28.068Z,42.9
2018-06-30T09:14:18.331Z,42.9
2018-06-30T09:15:08.404Z,42.9
2018-06-30T09:15:57.979Z,42.9
2018-06-30T09:16:48.598Z,42.9
2018-06-30T09:17:38.601Z,42.9
2018-06-30T09:18:29.194Z,42.9
2018-06-30T09:19:18.971Z,42.9
2018-06-30T09:20:08.938Z,43
2018-06-30T09:20:59.443Z,43.1
2018-06-30T09:21:48.919Z,43.1
2018-06-30T09:22:39.243Z,43.1
2018-06-30T09:23:29.306Z,43.1
2018-06-30T09:24:19.684Z,43.1
2018-06-30T09:25:09.213Z,43
2018-06-30T09:25:59.328Z,43
2018-06-30T09:26:49.640Z,43.1
2018-06-30T09:27:38.780Z,43.1
2018-06-30T09:28:29.398Z,43.1
2018-06-30T09:29:19.616Z,43.1
2018-06-30T09:30:09.553Z,43
2018-06-30T09:30:59.903Z,43
2018-06-30T09:31:49.683Z,43
2018-06-30T09:32:40.068Z,43
2018-06-30T09:33:29.863Z,43.1
2018-06-30T09:34:19.671Z,43.1
2018-06-30T09:35:09.948Z,43.3
2018-06-30T09:35:59.173Z,43.3
2018-06-30T09:36:50.078Z,43.4
2018-06-30T09:37:39.869Z,43.3
2018-06-30T09:38:30.561Z,43.3
2018-06-30T09:39:20.583Z,43.3
2018-06-30T09:40:10.326Z,43.3
2018-06-30T09:41:00.505Z,43.3
2018-06-30T09:41:50.717Z,43.3
2018-06-30T09:42:40.796Z,43.3
2018-06-30T09:43:29.999Z,43.2
2018-06-30T09:44:21.596Z,43.2
2018-06-30T09:45:10.786Z,43.2
2018-06-30T09:46:00.784Z,43.2
2018-06-30T09:46:50.824Z,43.2
2018-06-30T09:47:40.625Z,43.2
2018-06-30T09:48:30.108Z,43.2
2018-06-30T09:49:21.296Z,43.3
2018-06-30T09:50:11.396Z,43.4
2018-06-30T09:51:02.533Z,43.6
2018-06-30T09:51:51.205Z,43.9
2018-06-30T09:52:41.543Z,44
2018-06-30T09:53:31.591Z,44
2018-06-30T09:54:21.655Z,43.9
2018-06-30T09:55:12.075Z,43.8
2018-06-30T09:56:02.078Z,43.8
2018-06-30T09:56:52.982Z,43.8
2018-06-30T09:57:42.178Z,43.8
2018-06-30T09:58:31.709Z,43.8
2018-06-30T09:59:22.334Z,43.9
2018-06-30T10:00:12.405Z,44
2018-06-30T10:01:02.525Z,44.2
2018-06-30T10:01:52.523Z,44.3
2018-06-30T10:02:42.580Z,44.4
2018-06-30T10:03:32.102Z,44.4
2018-06-30T10:04:22.684Z,44.4
2018-06-30T10:05:12.755Z,44.4
2018-06-30T10:06:02.870Z,44.5
2018-06-30T10:06:53.732Z,44.6
2018-06-30T10:07:42.992Z,44.8
2018-06-30T10:08:33.042Z,44.9
2018-06-30T10:09:23.112Z,44.9
2018-06-30T10:10:12.867Z,44.9
2018-06-30T10:11:03.222Z,45.1
2018-06-30T10:11:53.274Z,45.4
2018-06-30T10:12:44.145Z,45.6
2018-06-30T10:13:33.416Z,45.8
2018-06-30T10:14:22.487Z,46
2018-06-30T10:15:13.535Z,46.1
2018-06-30T10:16:02.785Z,46.2
2018-06-30T10:16:53.394Z,46.1
2018-06-30T10:17:44.490Z,46
2018-06-30T10:18:33.789Z,46
2018-06-30T10:19:23.733Z,46.1
2018-06-30T10:20:13.933Z,46.1
2018-06-30T10:21:05.275Z,46.3
2018-06-30T10:21:53.773Z,46.3
2018-06-30T10:22:44.184Z,46.4
2018-06-30T10:23:33.921Z,46.4
2018-06-30T10:24:24.238Z,46.5
2018-06-30T10:25:14.338Z,46.5
2018-06-30T10:26:04.436Z,46.6
2018-06-30T10:26:54.186Z,46.8
2018-06-30T10:27:44.306Z,47.1
2018-06-30T10:28:34.343Z,47.4
2018-06-30T10:29:24.658Z,47.6
2018-06-30T10:30:14.719Z,47.9
2018-06-30T10:31:04.511Z,48.1
2018-06-30T10:31:54.358Z,48.3
2018-06-30T10:32:44.901Z,48.4
2018-06-30T10:33:34.983Z,48.5
2018-06-30T10:34:24.758Z,48.5
2018-06-30T10:35:15.103Z,48.5
2018-06-30T10:36:04.698Z,48.6
2018-06-30T10:36:54.950Z,48.8
2018-06-30T10:37:45.285Z,48.9
2018-06-30T10:38:35.109Z,49.2
2018-06-30T10:39:25.113Z,49.3
2018-06-30T10:40:14.433Z,49.3
2018-06-30T10:41:04.993Z,49.3
2018-06-30T10:41:55.057Z,49.2
2018-06-30T10:42:45.656Z,49.1
2018-06-30T10:43:35.472Z,49.1
2018-06-30T10:44:26.125Z,49.4
2018-06-30T10:45:15.873Z,49.6
2018-06-30T10:46:05.675Z,49.8
2018-06-30T10:46:54.772Z,49.9
2018-06-30T10:47:45.759Z,49.8
2018-06-30T10:48:36.109Z,49.7
2018-06-30T10:49:26.189Z,49.6
2018-06-30T10:50:16.242Z,49.5
2018-06-30T10:51:06.048Z,49.6
2018-06-30T10:51:56.202Z,49.6
2018-06-30T10:52:46.227Z,49.6
2018-06-30T10:53:36.530Z,49.6
2018-06-30T10:54:26.315Z,49.8
2018-06-30T10:55:16.689Z,50
2018-06-30T10:56:06.727Z,50.2
2018-06-30T10:56:55.920Z,50.2
2018-06-30T10:57:46.552Z,50.1
2018-06-30T10:58:36.090Z,49.9
2018-06-30T10:59:26.187Z,49.9
2018-06-30T11:00:17.673Z,49.8
2018-06-30T11:01:07.102Z,49.9
2018-06-30T11:01:57.145Z,50
2018-06-30T11:02:46.951Z,50.1
2018-06-30T11:03:37.282Z,50.1
2018-06-30T11:04:27.633Z,50
2018-06-30T11:05:18.288Z,49.9
2018-06-30T11:06:07.237Z,49.9
2018-06-30T11:06:57.540Z,49.9
2018-06-30T11:07:47.642Z,50.1
2018-06-30T11:08:37.729Z,50.2
2018-06-30T11:09:27.222Z,50.3
2018-06-30T11:10:17.544Z,50.4
2018-06-30T11:11:08.879Z,50.6
2018-06-30T11:11:57.669Z,50.6
2018-06-30T11:12:48.838Z,50.6
2018-06-30T11:13:37.780Z,50.7
2018-06-30T11:14:28.162Z,50.8
2018-06-30T11:15:17.701Z,51.1
2018-06-30T11:16:07.533Z,51.1
2018-06-30T11:16:58.356Z,51
2018-06-30T11:17:48.445Z,51.1
2018-06-30T11:18:38.441Z,51.3
2018-06-30T11:19:27.046Z,51.4
2018-06-30T11:20:19.220Z,51.4
2018-06-30T11:21:08.621Z,51.4
2018-06-30T11:21:58.681Z,51.4
2018-06-30T11:22:48.216Z,51.6
2018-06-30T11:23:38.563Z,51.9
2018-06-30T11:24:28.898Z,52.1
2018-06-30T11:25:18.708Z,52.3
2018-06-30T11:26:08.768Z,52.3
2018-06-30T11:26:59.125Z,52.4
2018-06-30T11:27:49.135Z,52.5
2018-06-30T11:28:39.238Z,52.6
2018-06-30T11:29:30.170Z,52.7
2018-06-30T11:30:18.777Z,52.8
2018-06-30T11:31:09.441Z,52.9
2018-06-30T11:31:59.600Z,52.9
2018-06-30T11:32:49.530Z,53
2018-06-30T11:33:39.629Z,53.1
2018-06-30T11:34:29.462Z,53.2
2018-06-30T11:35:19.782Z,53.3
2018-06-30T11:36:09.510Z,53.4
2018-06-30T11:36:59.346Z,53.4
2018-06-30T11:37:49.649Z,53.5
2018-06-30T11:38:39.446Z,53.6
2018-06-30T11:39:30.149Z,53.7
2018-06-30T11:40:19.879Z,53.7
2018-06-30T11:41:10.171Z,53.8
2018-06-30T11:42:00.256Z,53.8
2018-06-30T11:42:50.308Z,53.9
2018-06-30T11:43:40.121Z,53.9
2018-06-30T11:44:30.201Z,54
2018-06-30T11:45:20.526Z,54.1
2018-06-30T11:46:10.601Z,54.1
2018-06-30T11:47:00.643Z,54.1
2018-06-30T11:47:50.685Z,54.2
2018-06-30T11:48:40.535Z,54.2
2018-06-30T11:49:30.822Z,54.2
2018-06-30T11:50:21.423Z,54.3
2018-06-30T11:51:10.401Z,54.3
2018-06-30T11:52:01.006Z,54.4
2018-06-30T11:52:51.163Z,54.5
2018-06-30T11:53:41.170Z,54.6
2018-06-30T11:54:31.231Z,54.6
2018-06-30T11:55:21.378Z,54.6
2018-06-30T11:56:11.341Z,54.7
2018-06-30T11:57:01.135Z,54.7
2018-06-30T11:57:51.480Z,54.8
2018-06-30T11:58:40.723Z,54.8
2018-06-30T11:59:31.627Z,54.8
2018-06-30T12:00:21.708Z,54.9
2018-06-30T12:01:11.470Z,54.9
2018-06-30T12:02:02.180Z,54.9
2018-06-30T12:02:51.592Z,54.9
2018-06-30T12:03:42.680Z,55
2018-06-30T12:04:31.505Z,55.1
2018-06-30T12:05:22.060Z,55.1
2018-06-30T12:06:11.835Z,55.1
2018-06-30T12:07:01.905Z,55.1
2018-06-30T12:07:52.225Z,55.1
2018-06-30T12:08:42.319Z,55.1
2018-06-30T12:09:32.414Z,55.2
2018-06-30T12:10:22.444Z,55.2
2018-06-30T12:11:12.225Z,55.3
2018-06-30T12:12:02.307Z,55.3
2018-06-30T12:12:52.630Z,55.3
2018-06-30T12:13:42.412Z,55.3
2018-06-30T12:14:32.783Z,55.3
2018-06-30T12:15:21.203Z,55.3
2018-06-30T12:16:12.900Z,55.4
2018-06-30T12:17:02.484Z,55.4
2018-06-30T12:17:52.399Z,55.4
2018-06-30T12:18:43.074Z,55.4
2018-06-30T12:19:33.161Z,55.4
2018-06-30T12:20:22.971Z,55.5
2018-06-30T12:21:13.308Z,55.5
2018-06-30T12:22:03.374Z,55.5
2018-06-30T12:22:54.265Z,55.6
2018-06-30T12:23:43.552Z,55.6
2018-06-30T12:24:33.543Z,55.7
2018-06-30T12:25:23.615Z,55.7
2018-06-30T12:26:13.148Z,55.8
2018-06-30T12:27:03.733Z,55.7
2018-06-30T12:27:53.318Z,55.8
2018-06-30T12:28:43.561Z,55.7
2018-06-30T12:29:33.800Z,55.6
2018-06-30T12:30:24.028Z,55.6
2018-06-30T12:31:13.576Z,55.7
2018-06-30T12:32:04.112Z,55.7
2018-06-30T12:32:53.708Z,55.7
2018-06-30T12:33:43.836Z,55.7
2018-06-30T12:34:34.546Z,55.6
2018-06-30T12:35:24.593Z,55.6
2018-06-30T12:36:13.698Z,55.6
2018-06-30T12:37:03.729Z,55.6
2018-06-30T12:37:53.961Z,55.6
2018-06-30T12:38:43.888Z,55.6
2018-06-30T12:39:34.873Z,55.6
2018-06-30T12:40:24.057Z,55.6
2018-06-30T12:41:14.361Z,55.5
2018-06-30T12:42:04.505Z,55.5
2018-06-30T12:42:54.775Z,55.5
2018-06-30T12:43:44.615Z,55.5
2018-06-30T12:44:35.246Z,55.4
2018-06-30T12:45:23.998Z,55.4
2018-06-30T12:46:14.540Z,55.4
2018-06-30T12:47:04.161Z,55.4
2018-06-30T12:47:55.408Z,55.3
2018-06-30T12:48:45.345Z,55.3
2018-06-30T12:49:35.677Z,55.2
2018-06-30T12:50:25.703Z,55.2
2018-06-30T12:51:14.897Z,55.2
2018-06-30T12:52:05.380Z,55.1
2018-06-30T12:52:55.318Z,55.1
2018-06-30T12:53:45.698Z,55.1
2018-06-30T12:54:36.774Z,55
2018-06-30T12:55:25.823Z,55
2018-06-30T12:56:15.879Z,55
2018-06-30T12:57:05.340Z,55.1
2018-06-30T12:57:56.478Z,55.1
2018-06-30T12:58:45.465Z,55.1
2018-06-30T12:59:35.487Z,55.1
2018-06-30T13:00:26.416Z,55.1
2018-06-30T13:01:15.987Z,55.1
2018-06-30T13:02:06.075Z,55
2018-06-30T13:02:56.113Z,55
2018-06-30T13:03:45.997Z,54.9
2018-06-30T13:04:35.907Z,54.9
2018-06-30T13:05:26.797Z,54.9
2018-06-30T13:06:16.877Z,54.9
2018-06-30T13:07:06.632Z,54.8
2018-06-30T13:07:56.374Z,54.7
2018-06-30T13:08:47.110Z,54.7
2018-06-30T13:09:37.464Z,54.6
2018-06-30T13:10:27.250Z,54.5
2018-06-30T13:11:16.244Z,54.5
2018-06-30T13:12:07.162Z,54.5
2018-06-30T13:12:57.116Z,54.5
2018-06-30T13:13:47.196Z,54.5
2018-06-30T13:14:37.569Z,54.4
2018-06-30T13:15:27.538Z,54.3
2018-06-30T13:16:18.478Z,54.3
2018-06-30T13:17:07.123Z,54.3
2018-06-30T13:17:57.236Z,54.2
2018-06-30T13:18:47.299Z,54.2
2018-06-30T13:19:37.096Z,54.2
2018-06-30T13:20:27.706Z,54.1
2018-06-30T13:21:17.193Z,54.1
2018-06-30T13:22:08.225Z,54.1
2018-06-30T13:22:57.407Z,54.3
2018-06-30T13:23:47.793Z,54.3
2018-06-30T13:24:38.310Z,54.3
2018-06-30T13:25:28.453Z,54.3
2018-06-30T13:26:18.747Z,54.3
2018-06-30T13:27:07.753Z,54.3
2018-06-30T13:27:58.265Z,54.4
2018-06-30T13:28:49.197Z,54.4
2018-06-30T13:29:38.431Z,54.4
2018-06-30T13:30:28.768Z,54.4
2018-06-30T13:31:17.972Z,54.4
2018-06-30T13:32:09.223Z,54.4
2018-06-30T13:32:58.741Z,54.4
2018-06-30T13:33:48.028Z,54.4
2018-06-30T13:34:37.473Z,54.4
2018-06-30T13:35:28.618Z,54.4
2018-06-30T13:36:18.643Z,54.4
2018-06-30T13:37:07.947Z,54.4
2018-06-30T13:37:58.765Z,54.4
2018-06-30T13:38:48.578Z,54.4
2018-06-30T13:39:38.659Z,54.4
2018-06-30T13:40:28.982Z,54.3
2018-06-30T13:41:19.207Z,54.3
2018-06-30T13:42:09.097Z,54.3
2018-06-30T13:42:58.899Z,54.3
2018-06-30T13:43:48.397Z,54.2
2018-06-30T13:44:39.584Z,54.2
2018-06-30T13:45:29.091Z,54.2
2018-06-30T13:46:20.241Z,54.1
2018-06-30T13:47:09.494Z,54.1
2018-06-30T13:47:59.265Z,54.1
2018-06-30T13:48:49.946Z,54.1
2018-06-30T13:49:39.515Z,54.1
2018-06-30T13:50:29.771Z,54
2018-06-30T13:51:19.082Z,53.9
2018-06-30T13:52:09.625Z,53.9
2018-06-30T13:53:00.525Z,53.9
2018-06-30T13:53:50.089Z,53.9
2018-06-30T13:54:40.241Z,53.9
2018-06-30T13:55:30.390Z,53.8
2018-06-30T13:56:20.424Z,53.8
2018-06-30T13:57:10.156Z,53.8
2018-06-30T13:58:00.778Z,53.8
2018-06-30T13:58:49.834Z,53.7
2018-06-30T13:59:40.912Z,53.7
2018-06-30T14:00:31.013Z,53.6
2018-06-30T14:01:20.765Z,53.6
2018-06-30T14:02:10.024Z,53.6
2018-06-30T14:03:01.223Z,53.6
2018-06-30T14:03:51.010Z,53.5
2018-06-30T14:04:41.310Z,53.5
2018-06-30T14:05:30.572Z,53.4
2018-06-30T14:06:20.608Z,53.4
2018-06-30T14:07:11.214Z,53.4
2018-06-30T14:08:01.015Z,53.3
2018-06-30T14:08:51.116Z,53.3
2018-06-30T14:09:41.291Z,53.3
2018-06-30T14:10:30.942Z,53.3
2018-06-30T14:11:21.052Z,53.2
2018-06-30T14:12:11.897Z,53.1
2018-06-30T14:13:01.459Z,53.1
2018-06-30T14:13:51.315Z,53
2018-06-30T14:14:41.822Z,53
2018-06-30T14:15:32.234Z,52.9
2018-06-30T14:16:22.244Z,52.9
2018-06-30T14:17:11.557Z,52.9
2018-06-30T14:18:01.645Z,52.8
2018-06-30T14:18:51.940Z,52.8
2018-06-30T14:19:42.246Z,52.7
2018-06-30T14:20:32.008Z,52.6
2018-06-30T14:21:22.339Z,52.6
2018-06-30T14:22:11.872Z,52.6
2018-06-30T14:23:02.725Z,52.5
2018-06-30T14:23:52.569Z,52.4
2018-06-30T14:24:42.846Z,52.4
2018-06-30T14:26:22.769Z,52.3
2018-06-30T14:27:12.543Z,52.3
2018-06-30T14:28:02.849Z,52.2
2018-06-30T14:28:52.970Z,52.1
2018-06-30T14:29:42.716Z,52.1
2018-06-30T14:30:33.059Z,52.1
2018-06-30T14:31:22.846Z,52
2018-06-30T14:32:13.439Z,51.9
2018-06-30T14:33:03.054Z,51.9
2018-06-30T14:33:53.313Z,51.8
2018-06-30T14:34:43.664Z,51.8
2018-06-30T14:35:33.444Z,51.7
2018-06-30T14:36:23.529Z,51.6
2018-06-30T14:37:13.647Z,51.6
2018-06-30T14:38:03.932Z,51.5
2018-06-30T14:38:53.483Z,51.4
2018-06-30T14:39:43.503Z,51.4
2018-06-30T14:40:33.358Z,51.3
2018-06-30T14:41:23.970Z,51.3
2018-06-30T14:42:14.244Z,51.2
2018-06-30T14:43:04.018Z,51.1
2018-06-30T14:43:55.046Z,51
2018-06-30T14:44:43.748Z,51
2018-06-30T14:45:33.468Z,50.9
2018-06-30T14:46:24.643Z,50.8
2018-06-30T14:47:14.351Z,50.8
2018-06-30T14:48:04.388Z,50.6
2018-06-30T14:48:54.185Z,50.6
2018-06-30T14:49:45.374Z,50.4
2018-06-30T14:50:34.605Z,50.3
2018-06-30T14:51:24.992Z,50
2018-06-30T14:52:14.442Z,49.6
2018-06-30T14:53:04.219Z,49.1
2018-06-30T14:53:54.315Z,48.6
2018-06-30T14:54:44.978Z,48.3
2018-06-30T14:55:34.432Z,47.8
2018-06-30T14:56:24.496Z,47.4
2018-06-30T14:57:14.855Z,47.1
2018-06-30T14:58:04.895Z,46.7
2018-06-30T14:58:55.594Z,46.4
2018-06-30T14:59:45.327Z,46
2018-06-30T15:00:35.114Z,45.7
2018-06-30T15:01:25.224Z,45.4
2018-06-30T15:02:15.561Z,45.1
2018-06-30T15:03:05.586Z,44.8
2018-06-30T15:03:55.694Z,44.6
2018-06-30T15:04:45.404Z,44.3
2018-06-30T15:05:35.837Z,44.1
2018-06-30T15:06:25.930Z,43.8
2018-06-30T15:07:15.671Z,43.6
2018-06-30T15:08:05.968Z,43.3
2018-06-30T15:08:56.324Z,43.1
2018-06-30T15:09:46.146Z,42.8
2018-06-30T15:10:35.891Z,42.6
2018-06-30T15:11:25.701Z,42.4
2018-06-30T15:12:16.035Z,42.2
2018-06-30T15:13:06.349Z,42
2018-06-30T15:13:56.455Z,41.8
2018-06-30T15:14:46.795Z,41.6
2018-06-30T15:15:36.550Z,41.4
2018-06-30T15:16:26.923Z,41.3
2018-06-30T15:17:16.739Z,41.1
2018-06-30T15:18:06.783Z,40.9
2018-06-30T15:18:57.367Z,40.8
2018-06-30T15:19:47.168Z,40.6
2018-06-30T15:20:36.960Z,40.5
2018-06-30T15:21:26.682Z,40.4
2018-06-30T15:22:15.981Z,40.2
2018-06-30T15:23:07.223Z,40.1
2018-06-30T15:23:56.772Z,39.9
2018-06-30T15:24:46.985Z,39.8
2018-06-30T15:25:37.628Z,39.7
2018-06-30T15:26:27.398Z,39.6
2018-06-30T15:27:16.923Z,39.4
2018-06-30T15:28:07.805Z,39.3
2018-06-30T15:28:57.577Z,39.2
2018-06-30T15:29:46.917Z,39.1
2018-06-30T15:30:37.418Z,39
2018-06-30T15:31:28.062Z,38.9
2018-06-30T15:32:17.323Z,38.8
2018-06-30T15:33:08.262Z,38.7
2018-06-30T15:33:57.704Z,38.6
2018-06-30T15:34:48.329Z,38.5
2018-06-30T15:35:38.369Z,38.4
2018-06-30T15:36:28.209Z,38.3
2018-06-30T15:37:17.997Z,38.2
2018-06-30T15:38:08.314Z,38.1
2018-06-30T15:38:57.774Z,38
2018-06-30T15:39:47.171Z,37.9
2018-06-30T15:40:38.245Z,37.9
2018-06-30T15:41:28.527Z,37.8
2018-06-30T15:42:18.884Z,37.7
2018-06-30T15:43:08.999Z,37.6
2018-06-30T15:43:58.749Z,37.6
2018-06-30T15:44:48.234Z,37.4
2018-06-30T15:45:38.366Z,37.4
2018-06-30T15:46:28.612Z,37.3
2018-06-30T15:47:18.159Z,37.3
2018-06-30T15:48:09.064Z,37.2
2018-06-30T15:48:58.311Z,37.1
2018-06-30T15:49:49.476Z,37
2018-06-30T15:50:39.541Z,36.9
2018-06-30T15:51:29.364Z,36.9
2018-06-30T15:52:19.388Z,36.8
2018-06-30T15:53:09.449Z,36.8
2018-06-30T15:54:00.352Z,36.7
2018-06-30T15:54:49.917Z,36.6
2018-06-30T15:55:40.186Z,36.6
2018-06-30T15:56:29.441Z,36.5
2018-06-30T15:57:20.016Z,36.4
2018-06-30T15:58:09.633Z,36.4
2018-06-30T15:58:59.403Z,36.3
2018-06-30T15:59:49.968Z,36.3
2018-06-30T16:00:39.726Z,36.2
2018-06-30T16:01:30.371Z,36.2
2018-06-30T16:02:19.633Z,36.1
2018-06-30T16:03:10.240Z,36.1